createdAt,value
2022-12-25T00:00:16.657Z,10.40
2022-12-25T00:02:48.614Z,10.45
2022-12-25T00:05:16.494Z,10.95
2022-12-25T00:07:44.400Z,10.65
2022-12-25T00:10:12.234Z,10.95
2022-12-25T00:12:40.254Z,9.65
2022-12-25T00:15:08.534Z,10.88
2022-12-25T00:17:36.451Z,9.85
2022-12-25T00:20:04.827Z,9.18
2022-12-25T00:22:32.692Z,10.07
2022-12-25T00:25:00.561Z,9.15
2022-12-25T00:27:31.138Z,10.52
2022-12-25T00:29:58.900Z,9.32
2022-12-25T00:32:26.805Z,8.95
2022-12-25T00:34:54.799Z,9.82
2022-12-25T00:37:22.631Z,9.07
2022-12-25T00:39:50.502Z,9.80
2022-12-25T00:42:21.354Z,8.70
2022-12-25T00:44:50.232Z,9.02
2022-12-25T00:47:18.962Z,9.50
2022-12-25T00:49:46.913Z,9.32
2022-12-25T00:52:15.356Z,8.68
2022-12-25T00:54:43.318Z,9.10
2022-12-25T00:57:11.258Z,8.82
2022-12-25T00:59:39.048Z,9.00
2022-12-25T01:02:25.487Z,9.07
2022-12-25T01:04:57.381Z,8.35
2022-12-25T01:07:26.683Z,8.10
2022-12-25T01:10:13.330Z,8.30
2022-12-25T01:12:43.262Z,8.48
2022-12-25T01:15:13.455Z,8.38
2022-12-25T01:17:42.577Z,8.95
2022-12-25T01:20:11.416Z,9.35
2022-12-25T01:22:39.466Z,8.93
2022-12-25T01:25:07.765Z,8.88
2022-12-25T01:27:36.233Z,8.82
2022-12-25T01:30:05.396Z,8.52
2022-12-25T01:32:33.303Z,8.73
2022-12-25T01:35:01.153Z,8.93
2022-12-25T01:37:29.045Z,9.68
2022-12-25T01:39:56.948Z,9.00
2022-12-25T01:42:24.865Z,7.63
2022-12-25T01:44:52.636Z,8.25
2022-12-25T01:47:20.428Z,8.57
2022-12-25T01:49:50.888Z,9.00
2022-12-25T01:52:24.663Z,8.65
2022-12-25T01:54:59.313Z,8.57
2022-12-25T01:57:32.644Z,7.82
2022-12-25T02:00:01.773Z,8.48
2022-12-25T02:02:33.095Z,9.77
2022-12-25T02:05:12.037Z,9.20
2022-12-25T02:07:41.405Z,7.97
2022-12-25T02:10:12.037Z,8.32
2022-12-25T02:12:43.272Z,8.70
2022-12-25T02:15:20.995Z,8.70
2022-12-25T02:17:54.975Z,9.63
2022-12-25T02:20:31.637Z,8.77
2022-12-25T02:23:20.423Z,9.82
2022-12-25T02:26:09.841Z,9.75
2022-12-25T02:29:06.538Z,8.43
2022-12-25T02:31:56.021Z,8.48
2022-12-25T02:34:38.118Z,8.65
2022-12-25T02:37:32.656Z,9.75
2022-12-25T02:40:05.569Z,8.27
2022-12-25T02:43:17.665Z,8.45
2022-12-25T02:46:13.441Z,8.40
2022-12-25T02:51:53.075Z,8.05
2022-12-25T02:54:47.387Z,8.40
2022-12-25T02:57:36.848Z,8.40
2022-12-25T03:00:24.869Z,8.38
2022-12-25T03:03:13.073Z,9.18
2022-12-25T03:06:01.138Z,8.98
2022-12-25T03:08:36.493Z,8.63
2022-12-25T03:11:27.423Z,9.40
2022-12-25T03:14:26.064Z,8.48
2022-12-25T03:17:00.249Z,9.98
2022-12-25T03:19:51.897Z,9.50
2022-12-25T03:22:45.893Z,9.40
2022-12-25T03:25:33.175Z,9.07
2022-12-25T03:28:01.914Z,8.95
2022-12-25T03:31:06.012Z,10.90
2022-12-25T03:34:11.608Z,10.13
2022-12-25T03:37:11.969Z,10.70
2022-12-25T03:39:55.393Z,10.15
2022-12-25T03:42:53.787Z,11.15
2022-12-25T03:46:04.392Z,10.30
2022-12-25T03:48:54.675Z,10.20
2022-12-25T03:51:49.820Z,10.75
2022-12-25T03:54:41.912Z,9.52
2022-12-25T03:57:30.226Z,10.50
2022-12-25T04:00:16.691Z,11.20
2022-12-25T04:03:03.210Z,10.40
2022-12-25T04:05:49.805Z,10.15
2022-12-25T04:08:36.439Z,10.55
2022-12-25T04:11:22.923Z,10.65
2022-12-25T04:14:09.485Z,10.65
2022-12-25T04:16:56.362Z,9.82
2022-12-25T04:19:42.791Z,9.85
2022-12-25T04:22:29.190Z,10.15
2022-12-25T04:25:15.800Z,10.25
2022-12-25T04:28:01.980Z,10.32
2022-12-25T04:30:48.779Z,10.13
2022-12-25T04:33:35.581Z,10.52
2022-12-25T04:36:09.317Z,10.30
2022-12-25T04:38:38.008Z,9.23
2022-12-25T04:41:06.578Z,9.13
2022-12-25T04:43:34.442Z,8.98
2022-12-25T04:46:02.945Z,8.35
2022-12-25T04:48:33.144Z,8.13
2022-12-25T04:51:17.497Z,8.95
2022-12-25T04:53:46.494Z,7.97
2022-12-25T04:56:15.172Z,7.78
2022-12-25T04:58:44.214Z,6.60
2022-12-25T05:01:13.280Z,6.95
2022-12-25T05:03:41.722Z,6.35
2022-12-25T05:06:09.770Z,6.30
2022-12-25T05:08:37.923Z,6.05
2022-12-25T05:11:11.033Z,5.72
2022-12-25T05:13:39.604Z,5.22
2022-12-25T05:16:12.441Z,5.63
2022-12-25T05:18:40.558Z,4.72
2022-12-25T05:21:09.484Z,4.78
2022-12-25T05:23:37.514Z,5.40
2022-12-25T05:26:07.192Z,4.82
2022-12-25T05:28:36.362Z,5.13
2022-12-25T05:31:04.346Z,5.25
2022-12-25T05:33:32.299Z,4.88
2022-12-25T05:36:04.305Z,5.18
2022-12-25T05:38:32.275Z,5.07
2022-12-25T05:41:00.558Z,5.47
2022-12-25T05:43:28.926Z,4.82
2022-12-25T05:45:57.020Z,5.50
2022-12-25T05:48:24.891Z,5.22
2022-12-25T05:50:52.796Z,5.07
2022-12-25T05:53:20.692Z,4.45
2022-12-25T05:55:48.632Z,4.68
2022-12-25T05:58:16.425Z,5.35
2022-12-25T06:00:44.863Z,5.13
2022-12-25T06:03:12.809Z,4.95
2022-12-25T06:05:40.739Z,4.75
2022-12-25T06:08:08.585Z,5.18
2022-12-25T06:10:37.140Z,5.20
2022-12-25T06:13:05.110Z,5.35
2022-12-25T06:15:33.712Z,5.28
2022-12-25T06:18:01.833Z,4.95
2022-12-25T06:20:30.248Z,5.35
2022-12-25T06:22:58.069Z,5.43
2022-12-25T06:25:26.021Z,5.28
2022-12-25T06:27:53.896Z,5.18
2022-12-25T06:30:21.758Z,5.25
2022-12-25T06:32:49.649Z,5.57
2022-12-25T06:35:17.574Z,5.22
2022-12-25T06:37:45.424Z,5.82
2022-12-25T06:40:13.496Z,5.47
2022-12-25T06:42:41.548Z,5.88
2022-12-25T06:45:09.866Z,5.88
2022-12-25T06:47:40.166Z,6.50
2022-12-25T06:50:08.371Z,6.57
2022-12-25T06:52:36.180Z,7.10
2022-12-25T06:55:04.111Z,6.28
2022-12-25T06:57:32.401Z,6.70
2022-12-25T07:00:00.243Z,7.10
2022-12-25T07:02:28.413Z,7.80
2022-12-25T07:04:56.619Z,7.10
2022-12-25T07:07:24.472Z,7.53
2022-12-25T07:09:52.528Z,8.43
2022-12-25T07:12:23.625Z,7.82
2022-12-25T07:14:55.655Z,8.52
2022-12-25T07:17:24.392Z,8.43
2022-12-25T07:19:52.679Z,9.07
2022-12-25T07:22:20.652Z,8.25
2022-12-25T07:24:48.447Z,8.20
2022-12-25T07:27:16.381Z,7.88
2022-12-25T07:29:44.253Z,8.68
2022-12-25T07:32:12.326Z,8.43
2022-12-25T07:34:40.263Z,8.68
2022-12-25T07:37:08.266Z,8.35
2022-12-25T07:39:36.225Z,8.05
2022-12-25T07:42:04.306Z,8.45
2022-12-25T07:44:32.489Z,8.18
2022-12-25T07:47:00.378Z,8.77
2022-12-25T07:49:28.293Z,8.55
2022-12-25T07:51:56.220Z,8.52
2022-12-25T07:54:24.965Z,9.13
2022-12-25T07:56:53.417Z,8.80
2022-12-25T07:59:21.485Z,7.95
2022-12-25T08:01:50.913Z,8.38
2022-12-25T08:04:19.122Z,7.72
2022-12-25T08:06:47.107Z,7.43
2022-12-25T08:09:15.107Z,7.47
2022-12-25T08:11:47.156Z,7.60
2022-12-25T08:14:15.678Z,7.45
2022-12-25T08:16:44.518Z,7.70
2022-12-25T08:19:12.798Z,9.10
2022-12-25T08:21:40.634Z,8.23
2022-12-25T08:24:08.701Z,7.00
2022-12-25T08:26:36.536Z,7.45
2022-12-25T08:29:04.524Z,7.68
2022-12-25T08:31:35.785Z,7.22
2022-12-25T08:34:06.971Z,7.43
2022-12-25T08:36:34.982Z,7.05
2022-12-25T08:39:03.651Z,7.75
2022-12-25T08:41:32.362Z,7.30
2022-12-25T08:44:00.249Z,7.50
2022-12-25T08:46:28.319Z,7.70
2022-12-25T08:48:56.899Z,7.55
2022-12-25T08:51:25.944Z,7.65
2022-12-25T08:54:00.281Z,7.65
2022-12-25T08:56:29.088Z,7.53
2022-12-25T08:58:56.915Z,7.45
2022-12-25T09:01:24.865Z,7.43
2022-12-25T09:03:52.963Z,7.45
2022-12-25T09:06:20.841Z,7.13
2022-12-25T09:08:49.983Z,6.90
2022-12-25T09:11:19.653Z,7.80
2022-12-25T09:13:48.812Z,7.35
2022-12-25T09:16:20.444Z,6.78
2022-12-25T09:18:49.098Z,7.22
2022-12-25T09:21:18.243Z,7.07
2022-12-25T09:23:46.351Z,6.97
2022-12-25T09:26:16.818Z,6.30
2022-12-25T09:28:51.393Z,6.40
2022-12-25T09:31:21.857Z,6.75
2022-12-25T09:33:50.788Z,7.05
2022-12-25T09:36:21.274Z,7.03
2022-12-25T09:38:49.471Z,6.38
2022-12-25T09:41:26.783Z,6.57
2022-12-25T09:44:02.202Z,6.95
2022-12-25T09:46:45.075Z,6.53
2022-12-25T09:49:37.144Z,6.60
2022-12-25T09:52:20.592Z,6.40
2022-12-25T09:55:03.871Z,6.72
2022-12-25T09:57:33.808Z,6.18
2022-12-25T10:00:01.719Z,6.47
2022-12-25T10:03:10.221Z,7.65
2022-12-25T10:06:11.736Z,6.25
2022-12-25T10:08:57.474Z,7.20
2022-12-25T10:11:52.343Z,7.22
2022-12-25T10:14:20.368Z,6.97
2022-12-25T10:17:14.611Z,6.40
2022-12-25T10:20:01.298Z,6.47
2022-12-25T10:22:52.772Z,6.93
2022-12-25T10:25:23.765Z,5.85
2022-12-25T10:27:59.484Z,6.78
2022-12-25T10:30:28.993Z,7.05
2022-12-25T10:32:57.656Z,6.93
2022-12-25T10:35:28.002Z,6.35
2022-12-25T10:38:17.017Z,6.40
2022-12-25T10:40:55.763Z,7.07
2022-12-25T10:43:49.411Z,6.93
2022-12-25T10:46:18.392Z,7.18
2022-12-25T10:48:55.982Z,7.13
2022-12-25T10:51:34.606Z,7.45
2022-12-25T10:54:04.573Z,7.78
2022-12-25T10:56:32.393Z,7.28
2022-12-25T10:59:10.169Z,6.78
2022-12-25T11:01:38.180Z,7.07
2022-12-25T11:04:06.144Z,6.97
2022-12-25T11:06:34.449Z,7.30
2022-12-25T11:09:03.528Z,6.95
2022-12-25T11:11:32.013Z,6.45
2022-12-25T11:14:01.914Z,6.28
2022-12-25T11:16:37.792Z,6.50
2022-12-25T11:19:27.505Z,7.05
2022-12-25T11:21:58.271Z,6.60
2022-12-25T11:24:31.883Z,6.95
2022-12-25T11:27:06.284Z,6.40
2022-12-25T11:29:34.081Z,7.72
2022-12-25T11:32:04.915Z,6.80
2022-12-25T11:34:46.657Z,7.50
2022-12-25T11:37:48.313Z,7.07
2022-12-25T11:40:41.620Z,6.45
2022-12-25T11:43:23.521Z,7.03
2022-12-25T11:46:18.437Z,6.97
2022-12-25T11:48:56.042Z,6.95
2022-12-25T11:51:32.167Z,6.00
2022-12-25T11:54:16.034Z,6.85
2022-12-25T11:56:43.915Z,6.70
2022-12-25T11:59:50.039Z,6.25
2022-12-25T12:02:36.606Z,6.97
2022-12-25T12:05:33.802Z,6.60
2022-12-25T12:08:04.732Z,7.22
2022-12-25T12:11:15.577Z,7.53
2022-12-25T12:14:10.726Z,7.22
2022-12-25T12:16:38.779Z,7.53
2022-12-25T12:19:34.818Z,7.95
2022-12-25T12:22:04.847Z,8.30
2022-12-25T12:24:44.139Z,8.25
2022-12-25T12:27:18.187Z,7.65
2022-12-25T12:29:50.607Z,8.37
2022-12-25T12:32:27.813Z,8.75
2022-12-25T12:34:56.770Z,7.63
2022-12-25T12:37:34.098Z,9.07
2022-12-25T12:40:02.804Z,8.60
2022-12-25T12:42:35.991Z,7.93
2022-12-25T12:45:17.823Z,8.68
2022-12-25T12:47:48.503Z,8.40
2022-12-25T12:50:34.184Z,8.70
2022-12-25T12:53:22.364Z,7.75
2022-12-25T12:55:51.559Z,7.63
2022-12-25T12:58:36.666Z,8.50
2022-12-25T13:01:26.091Z,8.77
2022-12-25T13:03:56.968Z,8.43
2022-12-25T13:06:54.071Z,9.43
2022-12-25T13:09:43.701Z,9.02
2022-12-25T13:12:12.979Z,8.57
2022-12-25T13:14:46.548Z,9.20
2022-12-25T13:17:19.926Z,8.85
2022-12-25T13:19:59.730Z,9.45
2022-12-25T13:22:33.108Z,9.55
2022-12-25T13:25:05.070Z,9.00
2022-12-25T13:27:34.183Z,9.30
2022-12-25T13:30:13.971Z,8.70
2022-12-25T13:32:42.876Z,9.35
2022-12-25T13:35:15.534Z,9.38
2022-12-25T13:37:44.084Z,9.40
2022-12-25T13:40:38.386Z,9.45
2022-12-25T13:43:06.433Z,10.43
2022-12-25T13:45:35.638Z,11.02
2022-12-25T13:48:16.346Z,13.27
2022-12-25T13:50:48.350Z,13.90
2022-12-25T13:53:18.227Z,16.38
2022-12-25T13:55:54.353Z,10.45
2022-12-25T13:58:31.521Z,10.63
2022-12-25T14:01:01.858Z,9.80
2022-12-25T14:03:41.962Z,9.93
2022-12-25T14:06:27.562Z,11.05
2022-12-25T14:08:58.236Z,10.82
2022-12-25T14:11:29.460Z,12.23
2022-12-25T14:14:03.781Z,11.52
2022-12-25T14:16:31.951Z,12.73
2022-12-25T14:19:02.327Z,12.77
2022-12-25T14:21:32.629Z,12.25
2022-12-25T14:24:00.964Z,12.45
2022-12-25T14:26:31.605Z,12.55
2022-12-25T14:29:05.397Z,13.25
2022-12-25T14:31:33.905Z,12.68
2022-12-25T14:34:03.755Z,11.50
2022-12-25T14:36:32.843Z,11.82
2022-12-25T14:39:04.851Z,11.95
2022-12-25T14:41:38.552Z,11.95
2022-12-25T14:44:39.527Z,12.50
2022-12-25T14:47:21.696Z,11.63
2022-12-25T14:49:50.057Z,12.23
2022-12-25T14:52:22.477Z,12.82
2022-12-25T14:55:15.836Z,12.57
2022-12-25T14:57:50.199Z,12.45
2022-12-25T15:00:27.729Z,14.07
2022-12-25T15:02:58.242Z,14.27
2022-12-25T15:05:37.863Z,16.80
2022-12-25T15:08:11.930Z,15.90
2022-12-25T15:13:30.301Z,13.95
2022-12-25T15:16:14.221Z,14.18
2022-12-25T15:18:44.863Z,14.38
2022-12-25T15:21:30.255Z,19.63
2022-12-25T15:24:00.177Z,22.02
2022-12-25T15:26:30.478Z,27.60
2022-12-25T15:28:58.916Z,19.42
2022-12-25T15:31:30.181Z,21.08
2022-12-25T15:34:01.671Z,22.20
2022-12-25T15:36:30.170Z,15.82
2022-12-25T15:38:58.242Z,14.63
2022-12-25T15:41:48.872Z,14.60
2022-12-25T15:44:17.488Z,14.75
2022-12-25T15:46:46.075Z,13.18
2022-12-25T15:49:15.315Z,12.75
2022-12-25T15:51:44.260Z,12.70
2022-12-25T15:54:12.331Z,20.83
2022-12-25T15:56:51.559Z,16.23
2022-12-25T15:59:20.503Z,13.57
2022-12-25T16:01:51.079Z,14.80
2022-12-25T16:04:19.361Z,15.23
2022-12-25T16:06:47.452Z,15.45
2022-12-25T16:09:16.844Z,15.57
2022-12-25T16:11:44.925Z,15.52
2022-12-25T16:14:13.202Z,16.77
2022-12-25T16:16:41.590Z,20.50
2022-12-25T16:19:09.553Z,18.65
2022-12-25T16:21:44.078Z,20.10
2022-12-25T16:24:12.481Z,19.48
2022-12-25T16:26:40.654Z,16.55
2022-12-25T16:29:08.732Z,17.00
2022-12-25T16:31:37.764Z,16.60
2022-12-25T16:34:06.900Z,15.63
2022-12-25T16:36:35.658Z,15.27
2022-12-25T16:39:04.889Z,16.85
2022-12-25T16:41:33.181Z,16.92
2022-12-25T16:44:11.080Z,17.77
2022-12-25T16:46:40.744Z,19.65
2022-12-25T16:49:08.827Z,20.08
2022-12-25T16:51:36.619Z,20.98
2022-12-25T16:54:04.681Z,21.40
2022-12-25T16:56:32.654Z,19.50
2022-12-25T16:59:00.941Z,19.05
2022-12-25T17:01:29.265Z,18.55
2022-12-25T17:04:01.573Z,18.65
2022-12-25T17:06:29.990Z,19.90
2022-12-25T17:09:00.313Z,16.77
2022-12-25T17:11:30.219Z,18.85
2022-12-25T17:14:02.091Z,19.38
2022-12-25T17:16:32.720Z,18.45
2022-12-25T17:19:04.309Z,19.02
2022-12-25T17:21:34.344Z,20.17
2022-12-25T17:24:04.445Z,21.88
2022-12-25T17:26:33.295Z,22.23
2022-12-25T17:29:01.392Z,21.52
2022-12-25T17:31:30.121Z,19.83
2022-12-25T17:33:59.696Z,23.40
2022-12-25T17:36:28.512Z,23.23
2022-12-25T17:38:56.675Z,28.77
2022-12-25T17:41:24.768Z,29.23
2022-12-25T17:43:52.760Z,30.95
2022-12-25T17:46:31.216Z,27.67
2022-12-25T17:49:01.378Z,27.70
2022-12-25T17:51:31.409Z,26.98
2022-12-25T17:54:03.277Z,27.85
2022-12-25T17:56:31.630Z,29.90
2022-12-25T17:59:03.635Z,28.42
2022-12-25T18:01:31.918Z,27.48
2022-12-25T18:04:00.340Z,27.00
2022-12-25T18:06:29.681Z,26.42
2022-12-25T18:08:58.953Z,27.65
2022-12-25T18:11:32.677Z,28.92
2022-12-25T18:14:03.661Z,28.30
2022-12-25T18:16:34.699Z,26.48
2022-12-25T18:19:03.113Z,29.65
2022-12-25T18:21:31.595Z,27.40
2022-12-25T18:23:59.864Z,32.80
2022-12-25T18:26:28.858Z,47.90
2022-12-25T18:28:57.954Z,43.05
2022-12-25T18:31:28.032Z,27.48
2022-12-25T18:33:58.521Z,35.25
2022-12-25T18:36:29.064Z,39.72
2022-12-25T18:38:57.829Z,34.83
2022-12-25T18:41:28.358Z,33.53
2022-12-25T18:43:56.826Z,32.63
2022-12-25T18:46:26.971Z,30.77
2022-12-25T18:48:56.584Z,37.50
2022-12-25T18:51:29.913Z,34.95
2022-12-25T18:54:03.834Z,33.75
2022-12-25T18:56:31.852Z,33.00
2022-12-25T18:59:00.769Z,33.55
2022-12-25T19:01:29.016Z,32.08
2022-12-25T19:04:04.547Z,34.03
2022-12-25T19:06:33.471Z,33.72
2022-12-25T19:09:08.587Z,35.10
2022-12-25T19:11:45.590Z,36.50
2022-12-25T19:14:15.179Z,35.88
2022-12-25T19:16:43.294Z,36.80
2022-12-25T19:19:11.513Z,43.38
2022-12-25T19:21:39.365Z,39.35
2022-12-25T19:24:07.527Z,40.20
2022-12-25T19:26:36.053Z,38.92
2022-12-25T19:29:04.188Z,34.42
2022-12-25T19:31:32.171Z,34.28
2022-12-25T19:34:00.190Z,34.65
2022-12-25T19:36:28.371Z,35.17
2022-12-25T19:38:56.561Z,34.67
2022-12-25T19:41:24.616Z,33.92
2022-12-25T19:43:52.619Z,33.67
2022-12-25T19:46:23.110Z,32.58
2022-12-25T19:48:52.147Z,34.30
2022-12-25T19:51:25.715Z,34.30
2022-12-25T19:53:56.525Z,33.63
2022-12-25T19:56:25.696Z,35.15
2022-12-25T19:58:54.232Z,34.05
2022-12-25T20:01:25.039Z,35.10
2022-12-25T20:03:53.587Z,31.58
2022-12-25T20:06:28.868Z,29.00
2022-12-25T20:09:20.881Z,30.05
2022-12-25T20:11:50.166Z,29.63
2022-12-25T20:14:19.795Z,29.20
2022-12-25T20:16:47.857Z,28.52
2022-12-25T20:19:16.092Z,26.02
2022-12-25T20:21:44.128Z,25.92
2022-12-25T20:24:12.558Z,26.13
2022-12-25T20:26:41.650Z,22.50
2022-12-25T20:29:09.599Z,23.83
2022-12-25T20:31:37.611Z,25.15
2022-12-25T20:34:08.311Z,24.63
2022-12-25T20:36:37.731Z,23.70
2022-12-25T20:39:10.053Z,25.13
2022-12-25T20:41:46.998Z,22.20
2022-12-25T20:44:15.258Z,22.80
2022-12-25T20:46:43.380Z,24.77
2022-12-25T20:49:11.598Z,25.98
2022-12-25T20:51:40.767Z,29.00
2022-12-25T20:54:10.408Z,38.15
2022-12-25T20:56:38.608Z,32.17
2022-12-25T20:59:06.866Z,29.42
2022-12-25T21:01:35.341Z,29.83
2022-12-25T21:04:04.058Z,29.80
2022-12-25T21:06:32.062Z,28.83
2022-12-25T21:09:00.199Z,27.42
2022-12-25T21:11:30.526Z,28.55
2022-12-25T21:13:59.126Z,27.55
2022-12-25T21:16:28.450Z,26.17
2022-12-25T21:18:56.386Z,26.95
2022-12-25T21:21:24.422Z,25.83
2022-12-25T21:23:54.755Z,24.17
2022-12-25T21:26:25.479Z,25.67
2022-12-25T21:29:00.222Z,23.65
2022-12-25T21:31:31.159Z,24.25
2022-12-25T21:33:59.518Z,23.10
2022-12-25T21:36:28.996Z,23.60
2022-12-25T21:39:05.105Z,21.35
2022-12-25T21:41:34.340Z,22.13
2022-12-25T21:44:02.534Z,22.38
2022-12-25T21:46:30.605Z,21.15
2022-12-25T21:48:59.020Z,18.70
2022-12-25T21:51:48.987Z,18.02
2022-12-25T21:54:18.691Z,16.75
2022-12-25T21:56:48.032Z,18.05
2022-12-25T21:59:21.451Z,17.33
2022-12-25T22:01:51.045Z,17.27
2022-12-25T22:04:21.777Z,17.85
2022-12-25T22:07:08.207Z,14.95
2022-12-25T22:09:36.840Z,14.02
2022-12-25T22:12:26.139Z,12.98
2022-12-25T22:15:03.008Z,10.82
2022-12-25T22:17:52.566Z,11.82
2022-12-25T22:20:24.135Z,9.73
2022-12-25T22:22:52.538Z,10.40
2022-12-25T22:25:20.732Z,9.13
2022-12-25T22:27:49.760Z,9.02
2022-12-25T22:30:27.164Z,9.60
2022-12-25T22:32:55.615Z,9.32
2022-12-25T22:35:24.276Z,9.93
2022-12-25T22:37:53.974Z,9.02
2022-12-25T22:40:22.263Z,9.45
2022-12-25T22:42:53.143Z,9.43
2022-12-25T22:45:21.203Z,10.07
2022-12-25T22:47:49.492Z,9.38
2022-12-25T22:50:17.512Z,9.93
2022-12-25T22:52:46.564Z,10.35
2022-12-25T22:55:18.378Z,9.25
2022-12-25T22:57:46.388Z,9.20
2022-12-25T23:00:14.547Z,9.77
2022-12-25T23:02:42.845Z,9.98
2022-12-25T23:05:10.972Z,9.35
2022-12-25T23:07:39.057Z,9.30
2022-12-25T23:10:07.675Z,9.23
2022-12-25T23:12:54.137Z,9.85
2022-12-25T23:15:22.275Z,8.65
2022-12-25T23:18:08.761Z,8.85
2022-12-25T23:20:55.973Z,9.65
2022-12-25T23:23:42.597Z,9.13
2022-12-25T23:26:11.266Z,8.32
2022-12-25T23:28:59.621Z,8.73
2022-12-25T23:31:31.565Z,8.20
2022-12-25T23:33:59.864Z,8.93
2022-12-25T23:36:28.732Z,9.27
2022-12-25T23:38:56.704Z,8.60
2022-12-25T23:41:25.529Z,8.75
2022-12-25T23:43:53.363Z,8.00
2022-12-25T23:46:21.239Z,8.27
2022-12-25T23:48:49.183Z,8.20
2022-12-25T23:51:18.579Z,9.15
2022-12-25T23:53:46.527Z,8.73
2022-12-25T23:56:14.828Z,9.60
2022-12-25T23:58:45.109Z,9.52
